Time;durP1;ratioP1;P1;durP2;ratioP2;P2;SDS_P1;SDS_P2;PMS_P1;PMS_P2;Temp;Humidity;BMP_temperature;BMP_pressure;BME280_temperature;BME280_humidity;BME280_pressure;Samples;Min_cycle;Max_cycle;Signal;HPM_P1;HPM_P2
2023/03/07 00:00:36;;;;;;;;;;;6.20;99.90;;;;;;5049578;28;19913;-59
2023/03/07 00:03:02;;;;;;;;;;;6.20;99.90;;;;;;5049341;28;19924;-60
2023/03/07 00:05:28;;;;;;;;;;;6.20;99.90;;;;;;5047887;28;19923;-61
2023/03/07 00:07:54;;;;;;;;;;;6.20;99.90;;;;;;5045571;28;19914;-59
2023/03/07 00:10:19;;;;;;;;;;;6.30;99.90;;;;;;5042029;28;19913;-59
2023/03/07 00:12:45;;;;;;;;;;;6.30;99.90;;;;;;5049018;28;21582;-60
2023/03/07 00:15:10;;;;;;;;;;;6.20;99.90;;;;;;5046682;28;19921;-59
2023/03/07 00:17:36;;;;;;;;;;;6.30;99.90;;;;;;5048072;28;19913;-59
2023/03/07 00:20:05;;;;;;;;;;;6.30;99.90;;;;;;5045377;28;19966;-59
2023/03/07 00:22:31;;;;;;;;;;;6.30;99.90;;;;;;5045665;28;20311;-59
2023/03/07 00:24:57;;;;;;;;;;;6.30;99.90;;;;;;5046766;28;19920;-60
2023/03/07 00:27:22;;;;;;;;;;;6.30;99.90;;;;;;5046688;28;19931;-59
2023/03/07 00:29:49;;;;;;;;;;;6.20;99.90;;;;;;5050065;28;19960;-59
2023/03/07 00:32:14;;;;;;;;;;;6.20;99.90;;;;;;5051704;28;19917;-59
2023/03/07 00:34:40;;;;;;;;;;;6.30;99.90;;;;;;5051641;28;19927;-59
2023/03/07 00:37:05;;;;;;;;;;;6.30;99.90;;;;;;5053226;28;19921;-59
2023/03/07 00:39:31;;;;;;;;;;;6.30;99.90;;;;;;5051195;28;19963;-59
2023/03/07 00:41:56;;;;;;;;;;;6.30;99.90;;;;;;5052397;28;20287;-59
2023/03/07 00:44:22;;;;;;;;;;;6.30;99.90;;;;;;5048981;28;19916;-59
2023/03/07 00:46:47;;;;;;;;;;;6.20;99.90;;;;;;5051948;28;19917;-59
2023/03/07 00:49:13;;;;;;;;;;;6.20;99.90;;;;;;5050826;28;20005;-59
2023/03/07 00:51:38;;;;;;;;;;;6.20;99.90;;;;;;5052546;28;19913;-59
2023/03/07 00:54:04;;;;;;;;;;;6.10;99.90;;;;;;5050827;28;19928;-60
2023/03/07 00:56:29;;;;;;;;;;;6.10;99.90;;;;;;5043163;28;19913;-59
2023/03/07 00:58:55;;;;;;;;;;;6.20;99.90;;;;;;5048908;28;20273;-60
2023/03/07 01:01:21;;;;;;;;;;;6.10;99.90;;;;;;5049922;28;19921;-60
2023/03/07 01:03:53;;;;;;;;;;;6.10;99.90;;;;;;5052275;28;19920;-59
2023/03/07 01:06:19;;;;;;;;;;;6.10;99.90;;;;;;5040643;28;20006;-60
2023/03/07 01:08:45;;;;;;;;;;;6.10;99.90;;;;;;5043957;28;19913;-60
2023/03/07 01:11:11;;;;;;;;;;;6.10;99.90;;;;;;5050270;28;19920;-60
2023/03/07 01:13:36;;;;;;;;;;;6.10;99.90;;;;;;5051760;28;21308;-59
2023/03/07 01:16:06;;;;;;;;;;;6.10;99.90;;;;;;5050727;28;19920;-60
2023/03/07 01:18:31;;;;;;;;;;;6.00;99.90;;;;;;5050343;28;20009;-60
2023/03/07 01:20:56;;;;;;;;;;;6.00;99.90;;;;;;5052057;28;19948;-60
2023/03/07 01:23:22;;;;;;;;;;;6.10;99.90;;;;;;5042762;28;19917;-60
2023/03/07 01:25:48;;;;;;;;;;;6.00;99.90;;;;;;5052125;28;19917;-60
2023/03/07 01:28:13;;;;;;;;;;;6.10;99.90;;;;;;5050680;28;19974;-59
2023/03/07 01:30:39;;;;;;;;;;;6.00;99.90;;;;;;5052428;28;19912;-59
2023/03/07 01:33:05;;;;;;;;;;;6.00;99.90;;;;;;5050869;28;19912;-60
2023/03/07 01:35:35;;;;;;;;;;;6.00;99.90;;;;;;5050616;28;19913;-60
2023/03/07 01:38:00;;;;;;;;;;;6.10;99.90;;;;;;5052666;28;19913;-59
2023/03/07 01:40:26;;;;;;;;;;;6.00;99.90;;;;;;5050265;28;20387;-59
2023/03/07 01:42:52;;;;;;;;;;;6.00;99.90;;;;;;5049773;28;19928;-59
2023/03/07 01:45:32;;;;;;;;;;;6.00;99.90;;;;;;5050349;28;19913;-59
2023/03/07 01:47:57;;;;;;;;;;;6.00;99.90;;;;;;5050300;28;20380;-60
2023/03/07 01:50:23;;;;;;;;;;;6.00;99.90;;;;;;5050373;28;19917;-59
2023/03/07 01:52:53;;;;;;;;;;;6.00;99.90;;;;;;5051423;28;19966;-59
2023/03/07 01:55:21;;;;;;;;;;;6.00;99.90;;;;;;5048893;28;19960;-59
2023/03/07 01:57:48;;;;;;;;;;;6.00;99.90;;;;;;5043576;28;19913;-59
2023/03/07 02:00:18;;;;;;;;;;;6.00;99.90;;;;;;5049791;28;19920;-59
2023/03/07 02:02:46;;;;;;;;;;;6.00;99.90;;;;;;5051246;28;19928;-59
2023/03/07 02:05:13;;;;;;;;;;;6.00;99.90;;;;;;5048687;28;19940;-60
2023/03/07 02:07:49;;;;;;;;;;;6.00;99.90;;;;;;5051218;28;19919;-59
2023/03/07 02:10:15;;;;;;;;;;;6.00;99.90;;;;;;5049550;28;19920;-59
2023/03/07 02:12:41;;;;;;;;;;;6.00;99.90;;;;;;5050589;28;19913;-59
2023/03/07 02:15:07;;;;;;;;;;;6.00;99.90;;;;;;5045047;28;19913;-58
2023/03/07 02:17:33;;;;;;;;;;;6.10;99.90;;;;;;5048129;28;19944;-59
2023/03/07 02:19:58;;;;;;;;;;;6.00;99.90;;;;;;5051300;28;19920;-59
2023/03/07 02:22:24;;;;;;;;;;;6.10;99.90;;;;;;5048847;28;19976;-59
2023/03/07 02:24:50;;;;;;;;;;;6.10;99.90;;;;;;5050216;28;19919;-59
2023/03/07 02:27:16;;;;;;;;;;;6.00;99.90;;;;;;5048707;28;20296;-59
2023/03/07 02:29:41;;;;;;;;;;;6.00;99.90;;;;;;5050822;28;19920;-59
2023/03/07 02:32:07;;;;;;;;;;;6.10;99.90;;;;;;5050495;28;19951;-58
2023/03/07 02:34:33;;;;;;;;;;;6.10;99.90;;;;;;5050168;28;19920;-58
2023/03/07 02:37:19;;;;;;;;;;;6.10;99.90;;;;;;5044171;28;19913;-60
2023/03/07 02:39:45;;;;;;;;;;;6.20;99.90;;;;;;5049325;28;19913;-60
2023/03/07 02:42:14;;;;;;;;;;;6.30;99.90;;;;;;5048251;28;19928;-58
2023/03/07 02:44:42;;;;;;;;;;;6.20;99.90;;;;;;5049866;28;19912;-61
2023/03/07 02:47:08;;;;;;;;;;;6.30;99.90;;;;;;5049554;28;19920;-58
2023/03/07 02:49:35;;;;;;;;;;;6.30;99.90;;;;;;5042711;28;19912;-58
2023/03/07 02:52:00;;;;;;;;;;;6.20;99.90;;;;;;5040917;28;19921;-59
2023/03/07 02:54:26;;;;;;;;;;;6.20;99.90;;;;;;5047850;28;19924;-59
2023/03/07 02:56:52;;;;;;;;;;;6.20;99.90;;;;;;5041902;28;19913;-59
2023/03/07 02:59:18;;;;;;;;;;;6.20;99.90;;;;;;5048242;28;19912;-59
2023/03/07 03:01:44;;;;;;;;;;;6.20;99.90;;;;;;5050094;28;19927;-58
2023/03/07 03:04:09;;;;;;;;;;;6.20;99.90;;;;;;5047638;28;19996;-58
2023/03/07 03:06:35;;;;;;;;;;;6.30;99.90;;;;;;5040547;28;20012;-59
2023/03/07 03:09:01;;;;;;;;;;;6.20;99.90;;;;;;5050209;28;19919;-59
2023/03/07 03:11:27;;;;;;;;;;;6.20;99.90;;;;;;5043763;28;20008;-60
2023/03/07 03:13:52;;;;;;;;;;;6.20;99.90;;;;;;5048557;28;20007;-59
2023/03/07 03:16:18;;;;;;;;;;;6.20;99.90;;;;;;5048514;28;19913;-59
2023/03/07 03:18:43;;;;;;;;;;;6.20;99.90;;;;;;5045559;28;19944;-59
2023/03/07 03:21:09;;;;;;;;;;;6.20;99.90;;;;;;5048220;28;19916;-61
2023/03/07 03:23:35;;;;;;;;;;;6.20;99.90;;;;;;5041432;28;20108;-60
2023/03/07 03:26:03;;;;;;;;;;;6.20;99.90;;;;;;5048859;28;19920;-60
2023/03/07 03:28:29;;;;;;;;;;;6.20;99.90;;;;;;5046970;28;19989;-60
2023/03/07 03:30:56;;;;;;;;;;;6.10;99.90;;;;;;5047966;28;20363;-60
2023/03/07 03:33:22;;;;;;;;;;;6.20;99.90;;;;;;5045882;28;19913;-60
2023/03/07 03:35:47;;;;;;;;;;;6.20;99.90;;;;;;5049846;28;19913;-60
2023/03/07 03:38:13;;;;;;;;;;;6.10;99.90;;;;;;5047188;28;19913;-60
2023/03/07 03:40:38;;;;;;;;;;;6.10;99.90;;;;;;5049707;28;19916;-59
2023/03/07 03:43:04;;;;;;;;;;;6.20;99.90;;;;;;5048373;28;19921;-60
2023/03/07 03:45:29;;;;;;;;;;;6.20;99.90;;;;;;5048377;28;19967;-61
2023/03/07 03:47:54;;;;;;;;;;;6.10;99.90;;;;;;5048797;28;19955;-60
2023/03/07 03:50:20;;;;;;;;;;;6.10;99.90;;;;;;5046482;28;19913;-60
2023/03/07 03:52:45;;;;;;;;;;;6.10;99.90;;;;;;5048423;28;20334;-60
2023/03/07 03:55:11;;;;;;;;;;;6.10;99.90;;;;;;5047117;28;19912;-60
2023/03/07 03:57:37;;;;;;;;;;;6.20;99.90;;;;;;5040865;28;19917;-60
2023/03/07 04:00:04;;;;;;;;;;;6.20;99.90;;;;;;5049792;28;19913;-60
2023/03/07 04:02:31;;;;;;;;;;;6.10;99.90;;;;;;5045363;28;19947;-60
2023/03/07 04:04:57;;;;;;;;;;;6.20;99.90;;;;;;5044854;28;19914;-60
2023/03/07 04:07:24;;;;;;;;;;;6.20;99.90;;;;;;5051908;28;19958;-60
2023/03/07 04:09:49;;;;;;;;;;;6.20;99.90;;;;;;5048109;28;19971;-60
2023/03/07 04:12:15;;;;;;;;;;;6.20;99.90;;;;;;5051490;28;20410;-58
2023/03/07 04:14:40;;;;;;;;;;;6.30;99.90;;;;;;5052019;28;20376;-58
2023/03/07 04:17:06;;;;;;;;;;;6.20;99.90;;;;;;5053423;28;20261;-58
2023/03/07 04:19:31;;;;;;;;;;;6.20;99.90;;;;;;5050744;28;19982;-60
2023/03/07 04:21:57;;;;;;;;;;;6.20;99.90;;;;;;5052973;28;19928;-60
2023/03/07 04:24:22;;;;;;;;;;;6.20;99.90;;;;;;5067268;28;20402;-58
2023/03/07 04:26:48;;;;;;;;;;;6.20;99.90;;;;;;5052601;28;19939;-58
2023/03/07 04:29:14;;;;;;;;;;;6.10;99.90;;;;;;5050746;28;19917;-58
2023/03/07 04:31:39;;;;;;;;;;;6.30;99.90;;;;;;5053571;28;19920;-59
2023/03/07 04:34:05;;;;;;;;;;;6.30;99.90;;;;;;5053154;28;20007;-59
2023/03/07 04:36:30;;;;;;;;;;;6.30;99.90;;;;;;5051500;28;19963;-59
2023/03/07 04:38:56;;;;;;;;;;;6.30;99.90;;;;;;5052106;28;19921;-60
2023/03/07 04:41:32;;;;;;;;;;;6.30;99.90;;;;;;5048603;28;20372;-60
2023/03/07 04:43:58;;;;;;;;;;;6.20;99.90;;;;;;5030848;28;19925;-58
2023/03/07 04:46:24;;;;;;;;;;;6.30;99.90;;;;;;5031539;28;19919;-58
2023/03/07 04:48:49;;;;;;;;;;;6.30;99.90;;;;;;5032051;28;20276;-58
2023/03/07 04:51:15;;;;;;;;;;;6.20;99.90;;;;;;5030484;28;19913;-59
2023/03/07 04:53:40;;;;;;;;;;;6.30;99.90;;;;;;5033030;28;19913;-58
2023/03/07 04:56:07;;;;;;;;;;;6.30;99.90;;;;;;5031827;28;19949;-59
2023/03/07 04:58:33;;;;;;;;;;;6.30;99.90;;;;;;5030474;28;19953;-59
2023/03/07 05:00:59;;;;;;;;;;;6.30;99.90;;;;;;5030819;28;19959;-59
2023/03/07 05:03:25;;;;;;;;;;;6.20;99.90;;;;;;5030722;28;20364;-59
2023/03/07 05:05:51;;;;;;;;;;;6.10;99.90;;;;;;5032562;28;19943;-58
2023/03/07 05:08:17;;;;;;;;;;;6.10;99.90;;;;;;5029845;28;19913;-59
2023/03/07 05:10:43;;;;;;;;;;;6.10;99.90;;;;;;5031054;28;19952;-60
2023/03/07 05:13:09;;;;;;;;;;;6.10;99.90;;;;;;5032107;28;20430;-59
2023/03/07 05:15:35;;;;;;;;;;;6.10;99.90;;;;;;5024057;28;19920;-59
2023/03/07 05:18:00;;;;;;;;;;;6.20;99.90;;;;;;5031762;28;19917;-59
2023/03/07 05:20:26;;;;;;;;;;;6.10;99.90;;;;;;5030587;28;20487;-60
2023/03/07 05:22:52;;;;;;;;;;;6.10;99.90;;;;;;5032355;28;20020;-60
2023/03/07 05:25:17;;;;;;;;;;;6.10;99.90;;;;;;5030132;28;19913;-59
2023/03/07 05:27:43;;;;;;;;;;;6.10;99.90;;;;;;5031219;28;20373;-59
2023/03/07 05:30:10;;;;;;;;;;;6.00;99.90;;;;;;5029789;28;19920;-60
2023/03/07 05:32:35;;;;;;;;;;;6.00;99.90;;;;;;5056828;28;19921;-59
2023/03/07 05:35:01;;;;;;;;;;;6.00;99.90;;;;;;5032120;28;19920;-59
2023/03/07 05:37:26;;;;;;;;;;;6.00;99.90;;;;;;5029728;28;19913;-59
2023/03/07 05:39:52;;;;;;;;;;;5.90;99.90;;;;;;5031758;28;19913;-59
2023/03/07 05:42:18;;;;;;;;;;;6.00;99.90;;;;;;5029455;28;20372;-58
2023/03/07 05:44:43;;;;;;;;;;;5.90;99.90;;;;;;5032123;28;20005;-59
2023/03/07 05:47:09;;;;;;;;;;;5.90;99.90;;;;;;5029605;28;20265;-59
2023/03/07 05:49:34;;;;;;;;;;;5.90;99.90;;;;;;5031754;28;20276;-60
2023/03/07 05:52:00;;;;;;;;;;;5.90;99.90;;;;;;5031946;28;20050;-59
2023/03/07 05:54:26;;;;;;;;;;;5.90;99.90;;;;;;5029681;28;19917;-59
2023/03/07 05:56:51;;;;;;;;;;;5.90;99.90;;;;;;5030563;28;19920;-60
2023/03/07 05:59:17;;;;;;;;;;;5.80;99.90;;;;;;5029069;28;19948;-59
2023/03/07 06:01:43;;;;;;;;;;;5.80;99.90;;;;;;5031505;28;19921;-59
2023/03/07 06:04:08;;;;;;;;;;;5.90;99.90;;;;;;5031516;28;19949;-60
2023/03/07 06:06:34;;;;;;;;;;;5.80;99.90;;;;;;5031368;28;19920;-60
2023/03/07 06:09:00;;;;;;;;;;;5.80;99.90;;;;;;5029497;28;20016;-60
2023/03/07 06:11:25;;;;;;;;;;;5.90;99.90;;;;;;5027730;28;20400;-60
2023/03/07 06:13:51;;;;;;;;;;;5.90;99.90;;;;;;5031222;28;19972;-59
2023/03/07 06:16:16;;;;;;;;;;;5.90;99.90;;;;;;5028614;28;19920;-59
2023/03/07 06:18:42;;;;;;;;;;;5.90;99.90;;;;;;5030084;28;20004;-59
2023/03/07 06:21:09;;;;;;;;;;;5.90;99.90;;;;;;5028867;28;19921;-59
2023/03/07 06:23:35;;;;;;;;;;;5.90;99.90;;;;;;5026805;28;19913;-59
2023/03/07 06:26:01;;;;;;;;;;;5.90;99.90;;;;;;5027868;28;19921;-58
2023/03/07 06:28:27;;;;;;;;;;;5.90;99.90;;;;;;5025315;28;19913;-59
2023/03/07 06:30:52;;;;;;;;;;;5.80;99.90;;;;;;5028689;28;19920;-59
2023/03/07 06:33:18;;;;;;;;;;;5.90;99.90;;;;;;5029013;28;19913;-59
2023/03/07 06:35:44;;;;;;;;;;;5.90;99.90;;;;;;5027267;28;19936;-59
2023/03/07 06:38:10;;;;;;;;;;;5.90;99.90;;;;;;5028745;28;19913;-60
2023/03/07 06:40:36;;;;;;;;;;;5.90;99.90;;;;;;5030073;28;19917;-59
2023/03/07 06:43:02;;;;;;;;;;;5.80;99.90;;;;;;5030287;28;19925;-60
2023/03/07 06:45:27;;;;;;;;;;;5.80;99.90;;;;;;5031587;28;19982;-60
2023/03/07 06:47:53;;;;;;;;;;;5.80;99.90;;;;;;5027801;28;19975;-59
2023/03/07 06:50:19;;;;;;;;;;;5.60;99.90;;;;;;5028844;28;19913;-59
2023/03/07 06:52:44;;;;;;;;;;;5.40;99.90;;;;;;5030261;28;19944;-59
2023/03/07 06:55:10;;;;;;;;;;;5.20;99.90;;;;;;5028200;28;19964;-60
2023/03/07 06:57:36;;;;;;;;;;;5.00;99.90;;;;;;5029451;28;19913;-59
2023/03/07 07:00:03;;;;;;;;;;;4.90;99.90;;;;;;5030378;28;19920;-58
2023/03/07 07:02:28;;;;;;;;;;;4.80;99.90;;;;;;5028443;28;19921;-59
2023/03/07 07:04:54;;;;;;;;;;;4.80;99.90;;;;;;5030236;28;19920;-60
2023/03/07 07:07:19;;;;;;;;;;;4.70;99.90;;;;;;5028168;28;19913;-59
2023/03/07 07:09:45;;;;;;;;;;;4.70;99.90;;;;;;5030069;28;19913;-59
2023/03/07 07:12:11;;;;;;;;;;;4.60;99.90;;;;;;5026937;28;19917;-59
2023/03/07 07:14:36;;;;;;;;;;;4.60;99.90;;;;;;5029150;28;19913;-59
2023/03/07 07:17:02;;;;;;;;;;;4.60;99.90;;;;;;5029811;28;20004;-60
2023/03/07 07:19:27;;;;;;;;;;;4.60;99.90;;;;;;5027981;28;19913;-58
2023/03/07 07:21:53;;;;;;;;;;;4.50;99.90;;;;;;5028873;28;19929;-59
2023/03/07 07:24:19;;;;;;;;;;;4.50;99.90;;;;;;5027402;28;20357;-60
2023/03/07 07:26:44;;;;;;;;;;;4.40;99.90;;;;;;5029716;28;19913;-59
2023/03/07 07:29:10;;;;;;;;;;;4.30;99.90;;;;;;5027863;28;19914;-59
2023/03/07 07:31:35;;;;;;;;;;;4.30;99.90;;;;;;5029297;28;19999;-59
2023/03/07 07:34:01;;;;;;;;;;;4.20;99.90;;;;;;5029732;28;20356;-59
2023/03/07 07:36:27;;;;;;;;;;;4.10;99.90;;;;;;5027884;28;19913;-60
2023/03/07 07:38:53;;;;;;;;;;;4.10;99.90;;;;;;5029092;28;19913;-60
2023/03/07 07:41:18;;;;;;;;;;;4.10;99.90;;;;;;5026700;28;19925;-60
2023/03/07 07:43:45;;;;;;;;;;;4.20;99.90;;;;;;5029488;28;20388;-61
2023/03/07 07:46:11;;;;;;;;;;;4.30;99.90;;;;;;5024491;28;20376;-60
2023/03/07 07:48:37;;;;;;;;;;;4.20;99.90;;;;;;5028966;28;19940;-61
2023/03/07 07:51:03;;;;;;;;;;;4.30;99.90;;;;;;5025738;28;19913;-60
2023/03/07 07:53:28;;;;;;;;;;;4.20;99.90;;;;;;5026705;28;19920;-60
2023/03/07 07:55:54;;;;;;;;;;;4.20;99.90;;;;;;5028193;28;19913;-60
2023/03/07 07:58:19;;;;;;;;;;;4.10;99.90;;;;;;5024151;28;20050;-61
2023/03/07 08:00:45;;;;;;;;;;;4.10;99.90;;;;;;5027224;28;20019;-62
2023/03/07 08:03:11;;;;;;;;;;;4.10;99.90;;;;;;5026711;28;20373;-60
2023/03/07 08:05:36;;;;;;;;;;;4.20;99.90;;;;;;5027415;28;19960;-59
2023/03/07 08:08:02;;;;;;;;;;;4.30;99.90;;;;;;5027060;28;19920;-62
2023/03/07 08:10:27;;;;;;;;;;;4.40;99.90;;;;;;5025480;28;19945;-61
2023/03/07 08:12:53;;;;;;;;;;;4.50;99.90;;;;;;5028015;28;19919;-61
2023/03/07 08:15:22;;;;;;;;;;;4.60;99.90;;;;;;5027092;28;19920;-59
2023/03/07 08:17:49;;;;;;;;;;;4.60;99.90;;;;;;5028063;28;19920;-59
2023/03/07 08:20:14;;;;;;;;;;;4.70;99.90;;;;;;5026364;28;19952;-61
2023/03/07 08:22:40;;;;;;;;;;;4.70;99.90;;;;;;5027915;28;20392;-60
2023/03/07 08:25:06;;;;;;;;;;;4.70;99.90;;;;;;5026772;28;19920;-60
2023/03/07 08:27:32;;;;;;;;;;;4.50;99.90;;;;;;5026505;28;19924;-62
2023/03/07 08:29:59;;;;;;;;;;;4.30;99.90;;;;;;5027607;28;19947;-61
2023/03/07 08:32:24;;;;;;;;;;;4.40;99.90;;;;;;5025884;28;19919;-61
2023/03/07 08:34:50;;;;;;;;;;;4.40;99.90;;;;;;5028213;28;20319;-61
2023/03/07 08:37:16;;;;;;;;;;;4.40;99.90;;;;;;5026431;28;19921;-60
2023/03/07 08:39:42;;;;;;;;;;;4.20;99.90;;;;;;5026757;28;20270;-60
2023/03/07 08:42:07;;;;;;;;;;;4.20;99.90;;;;;;5025238;28;20050;-61
2023/03/07 08:44:33;;;;;;;;;;;4.20;99.90;;;;;;5026614;28;20054;-61
2023/03/07 08:46:58;;;;;;;;;;;4.20;99.90;;;;;;5028178;28;19917;-66
2023/03/07 08:49:24;;;;;;;;;;;4.20;99.90;;;;;;5025460;28;19932;-60
2023/03/07 08:51:49;;;;;;;;;;;4.30;99.90;;;;;;5029538;28;19909;-61
2023/03/07 08:54:15;;;;;;;;;;;4.30;99.90;;;;;;5030096;28;19913;-61
2023/03/07 08:56:40;;;;;;;;;;;4.30;99.90;;;;;;5031443;28;19956;-61
2023/03/07 08:59:06;;;;;;;;;;;4.40;99.90;;;;;;5030627;28;19924;-61
2023/03/07 09:01:32;;;;;;;;;;;4.50;99.90;;;;;;5030226;28;19925;-60
2023/03/07 09:03:57;;;;;;;;;;;4.50;99.90;;;;;;5025194;28;20376;-61
2023/03/07 09:06:23;;;;;;;;;;;4.50;99.90;;;;;;5028173;28;19960;-61
2023/03/07 09:08:49;;;;;;;;;;;4.40;99.90;;;;;;5031387;28;19924;-61
2023/03/07 09:11:16;;;;;;;;;;;4.40;99.90;;;;;;5029661;28;20349;-62
2023/03/07 09:13:42;;;;;;;;;;;4.40;99.90;;;;;;5031865;28;19921;-61
2023/03/07 09:16:07;;;;;;;;;;;4.50;99.90;;;;;;5031307;28;20234;-61
2023/03/07 09:18:33;;;;;;;;;;;4.60;99.90;;;;;;5028882;28;19921;-61
2023/03/07 09:20:59;;;;;;;;;;;4.70;99.90;;;;;;5029833;28;20011;-61
2023/03/07 09:23:25;;;;;;;;;;;4.80;99.90;;;;;;5029708;28;20009;-61
2023/03/07 09:25:51;;;;;;;;;;;4.90;99.90;;;;;;5030528;28;19913;-59
2023/03/07 09:28:16;;;;;;;;;;;5.00;99.90;;;;;;5027208;28;19922;-59
2023/03/07 09:30:42;;;;;;;;;;;5.00;99.90;;;;;;5028521;28;20314;-60
2023/03/07 09:33:08;;;;;;;;;;;5.10;99.90;;;;;;5028987;28;19913;-60
2023/03/07 09:35:33;;;;;;;;;;;5.20;99.90;;;;;;5029506;28;20392;-60
2023/03/07 09:37:59;;;;;;;;;;;5.20;99.90;;;;;;5029763;28;20292;-60
2023/03/07 09:40:25;;;;;;;;;;;5.30;99.90;;;;;;5029223;28;19925;-60
2023/03/07 09:43:10;;;;;;;;;;;5.40;99.90;;;;;;5026265;28;19925;-60
2023/03/07 09:45:46;;;;;;;;;;;5.50;99.90;;;;;;5025676;28;19924;-60
2023/03/07 09:48:23;;;;;;;;;;;5.70;99.90;;;;;;5028470;28;19917;-62
2023/03/07 09:50:54;;;;;;;;;;;5.70;99.90;;;;;;5030996;28;20384;-60
2023/03/07 09:53:38;;;;;;;;;;;5.70;99.90;;;;;;5028260;28;19913;-60
2023/03/07 09:56:10;;;;;;;;;;;5.70;99.90;;;;;;5027726;28;19913;-59
2023/03/07 09:58:37;;;;;;;;;;;5.70;99.90;;;;;;5016547;28;20369;-60
2023/03/07 10:01:06;;;;;;;;;;;5.70;99.90;;;;;;5029711;28;19913;-60
2023/03/07 10:03:36;;;;;;;;;;;5.70;99.90;;;;;;5028544;28;19921;-60
2023/03/07 10:06:09;;;;;;;;;;;5.70;99.90;;;;;;5030712;28;19913;-59
2023/03/07 10:08:36;;;;;;;;;;;5.60;99.90;;;;;;5028197;28;19924;-60
2023/03/07 10:11:07;;;;;;;;;;;5.60;99.90;;;;;;5025520;28;19924;-59
2023/03/07 10:13:45;;;;;;;;;;;5.50;99.90;;;;;;5027890;28;19924;-60
2023/03/07 10:16:29;;;;;;;;;;;5.50;99.90;;;;;;5028597;28;19936;-59
2023/03/07 10:18:58;;;;;;;;;;;5.50;99.90;;;;;;5029327;28;19921;-59
2023/03/07 10:21:26;;;;;;;;;;;5.50;99.90;;;;;;5023480;28;19923;-61
2023/03/07 10:24:01;;;;;;;;;;;5.60;99.90;;;;;;5030643;28;19964;-61
2023/03/07 10:26:34;;;;;;;;;;;5.60;99.90;;;;;;5028460;28;20014;-60
2023/03/07 10:29:01;;;;;;;;;;;5.60;99.90;;;;;;5028929;28;20400;-61
2023/03/07 10:31:38;;;;;;;;;;;5.70;99.90;;;;;;5027901;28;19956;-59
2023/03/07 10:34:20;;;;;;;;;;;5.70;99.90;;;;;;5030204;28;19910;-60
2023/03/07 10:36:48;;;;;;;;;;;5.70;99.90;;;;;;5027665;28;19917;-61
2023/03/07 10:39:29;;;;;;;;;;;5.90;99.90;;;;;;5027586;28;20369;-61
2023/03/07 10:41:55;;;;;;;;;;;5.90;99.90;;;;;;5029254;28;19933;-62
2023/03/07 10:44:21;;;;;;;;;;;5.90;99.90;;;;;;5027381;28;20384;-60
2023/03/07 10:46:48;;;;;;;;;;;5.90;99.90;;;;;;5030106;28;19913;-61
2023/03/07 10:49:16;;;;;;;;;;;6.00;99.90;;;;;;5028075;28;20016;-62
2023/03/07 10:52:03;;;;;;;;;;;5.90;99.90;;;;;;5029331;28;20377;-60
2023/03/07 10:54:30;;;;;;;;;;;5.90;99.90;;;;;;5028124;28;20280;-60
2023/03/07 10:57:11;;;;;;;;;;;5.80;99.90;;;;;;5028350;28;19947;-60
2023/03/07 10:59:38;;;;;;;;;;;5.70;99.90;;;;;;5025710;28;20079;-59
2023/03/07 11:02:23;;;;;;;;;;;5.70;99.90;;;;;;5028916;28;19963;-60
2023/03/07 11:04:50;;;;;;;;;;;5.70;99.90;;;;;;5024704;28;20024;-60
2023/03/07 11:07:35;;;;;;;;;;;5.60;99.90;;;;;;5027024;28;19920;-60
2023/03/07 11:10:04;;;;;;;;;;;5.70;99.90;;;;;;5029585;28;19913;-61
2023/03/07 11:12:30;;;;;;;;;;;5.60;99.90;;;;;;5026503;28;20376;-60
2023/03/07 11:15:07;;;;;;;;;;;5.50;99.90;;;;;;5028615;28;20052;-60
2023/03/07 11:17:41;;;;;;;;;;;5.50;99.90;;;;;;5026823;28;19932;-60
2023/03/07 11:20:27;;;;;;;;;;;5.40;99.90;;;;;;5029249;28;19913;-59
2023/03/07 11:23:11;;;;;;;;;;;5.30;99.90;;;;;;5022728;28;19928;-59
2023/03/07 11:25:36;;;;;;;;;;;5.30;99.90;;;;;;5028661;28;19913;-61
2023/03/07 11:28:02;;;;;;;;;;;5.40;99.90;;;;;;5028498;28;19917;-59
2023/03/07 11:30:46;;;;;;;;;;;5.50;99.90;;;;;;5027507;28;19913;-60
2023/03/07 11:33:23;;;;;;;;;;;5.60;99.90;;;;;;5026698;28;19913;-60
2023/03/07 11:35:55;;;;;;;;;;;5.80;99.90;;;;;;5027719;28;20012;-59
2023/03/07 11:38:23;;;;;;;;;;;6.00;99.90;;;;;;5026704;28;19935;-61
2023/03/07 11:41:07;;;;;;;;;;;6.20;99.90;;;;;;5027445;28;19953;-60
2023/03/07 11:43:36;;;;;;;;;;;6.40;99.90;;;;;;5025766;28;20375;-60
2023/03/07 11:46:07;;;;;;;;;;;6.40;99.90;;;;;;5028598;28;20372;-60
2023/03/07 11:48:52;;;;;;;;;;;6.50;99.90;;;;;;5027461;28;20279;-60
2023/03/07 11:51:23;;;;;;;;;;;6.30;99.90;;;;;;5026041;28;19957;-60
2023/03/07 11:53:58;;;;;;;;;;;6.20;99.90;;;;;;5029082;28;19917;-60
2023/03/07 11:56:27;;;;;;;;;;;6.10;99.90;;;;;;5026932;28;19913;-61
2023/03/07 11:59:11;;;;;;;;;;;6.10;99.90;;;;;;5029175;28;19913;-61
2023/03/07 12:01:43;;;;;;;;;;;6.10;99.90;;;;;;5028620;28;19917;-61
2023/03/07 12:04:10;;;;;;;;;;;6.20;99.90;;;;;;5029017;28;19917;-61
2023/03/07 12:06:48;;;;;;;;;;;6.30;99.90;;;;;;5025164;28;19913;-60
2023/03/07 12:09:16;;;;;;;;;;;6.30;99.90;;;;;;5026675;28;19928;-60
2023/03/07 12:11:50;;;;;;;;;;;6.40;99.90;;;;;;5027590;28;19925;-60
2023/03/07 12:14:28;;;;;;;;;;;6.50;99.90;;;;;;5024843;28;19967;-60
2023/03/07 12:17:12;;;;;;;;;;;6.50;99.90;;;;;;5027825;28;19951;-60
2023/03/07 12:19:38;;;;;;;;;;;6.60;99.90;;;;;;5025121;28;20007;-60
2023/03/07 12:22:13;;;;;;;;;;;6.60;99.90;;;;;;5028671;28;20084;-60
2023/03/07 12:24:41;;;;;;;;;;;6.70;99.90;;;;;;5028867;28;19919;-61
2023/03/07 12:27:13;;;;;;;;;;;6.70;99.90;;;;;;5029571;28;20009;-60
2023/03/07 12:29:40;;;;;;;;;;;6.60;99.90;;;;;;5029732;28;19913;-60
2023/03/07 12:32:10;;;;;;;;;;;6.90;99.90;;;;;;5032508;28;20296;-60
2023/03/07 12:34:42;;;;;;;;;;;6.90;99.90;;;;;;5030415;28;20023;-64
2023/03/07 12:37:08;;;;;;;;;;;6.80;99.90;;;;;;5030982;28;19913;-58
2023/03/07 12:39:53;;;;;;;;;;;6.60;99.90;;;;;;5030083;28;19913;-60
2023/03/07 12:42:24;;;;;;;;;;;6.30;99.90;;;;;;5029944;28;19943;-60
2023/03/07 12:44:52;;;;;;;;;;;6.20;99.90;;;;;;5032230;28;19928;-60
2023/03/07 12:47:36;;;;;;;;;;;6.20;99.90;;;;;;5029609;28;19940;-60
2023/03/07 12:50:17;;;;;;;;;;;6.40;99.90;;;;;;5032354;28;19924;-60
2023/03/07 12:52:53;;;;;;;;;;;6.60;99.90;;;;;;5032468;28;20031;-60
2023/03/07 12:55:22;;;;;;;;;;;6.60;99.90;;;;;;5030289;28;19966;-60
2023/03/07 12:58:08;;;;;;;;;;;6.70;99.90;;;;;;5031429;28;19920;-59
2023/03/07 13:00:36;;;;;;;;;;;6.70;99.90;;;;;;5029241;28;20107;-59
2023/03/07 13:03:05;;;;;;;;;;;6.70;99.90;;;;;;5031183;28;19925;-60
2023/03/07 13:05:33;;;;;;;;;;;6.80;99.90;;;;;;5030271;28;19917;-61
2023/03/07 13:07:58;;;;;;;;;;;6.80;99.90;;;;;;5032022;28;19920;-60
2023/03/07 13:10:24;;;;;;;;;;;6.90;99.90;;;;;;5028789;28;19913;-60
2023/03/07 13:12:50;;;;;;;;;;;6.90;99.90;;;;;;5031428;28;20368;-60
2023/03/07 13:15:16;;;;;;;;;;;6.90;99.90;;;;;;5030148;28;19959;-61
2023/03/07 13:17:41;;;;;;;;;;;7.10;99.90;;;;;;5030894;28;19917;-60
2023/03/07 13:20:26;;;;;;;;;;;7.10;99.90;;;;;;5030341;28;19913;-60
2023/03/07 13:22:52;;;;;;;;;;;7.10;99.90;;;;;;5029935;28;19921;-60
2023/03/07 13:25:18;;;;;;;;;;;6.80;99.90;;;;;;5028997;28;19925;-60
2023/03/07 13:27:47;;;;;;;;;;;6.70;99.90;;;;;;5025570;28;19921;-60
2023/03/07 13:30:13;;;;;;;;;;;6.60;99.90;;;;;;5024103;28;19917;-60
2023/03/07 13:32:52;;;;;;;;;;;6.60;99.90;;;;;;5031434;28;19920;-61
2023/03/07 13:35:27;;;;;;;;;;;6.60;99.90;;;;;;5029442;28;19913;-60
2023/03/07 13:38:14;;;;;;;;;;;6.80;99.90;;;;;;5031588;28;19917;-60
2023/03/07 13:40:41;;;;;;;;;;;6.90;99.90;;;;;;5031118;28;20370;-60
2023/03/07 13:43:21;;;;;;;;;;;7.00;99.90;;;;;;5027777;28;20394;-61
2023/03/07 13:45:47;;;;;;;;;;;7.00;99.90;;;;;;5031011;28;19945;-60
2023/03/07 13:48:35;;;;;;;;;;;7.00;99.90;;;;;;5029239;28;19968;-60
2023/03/07 13:51:01;;;;;;;;;;;7.00;99.90;;;;;;5019844;28;19959;-60
2023/03/07 13:53:26;;;;;;;;;;;7.20;99.90;;;;;;5029186;28;19913;-61
2023/03/07 13:56:08;;;;;;;;;;;7.30;99.90;;;;;;5030456;28;19924;-61
2023/03/07 13:58:34;;;;;;;;;;;7.40;99.90;;;;;;5029342;28;19935;-61
2023/03/07 14:01:17;;;;;;;;;;;7.40;99.90;;;;;;5030598;28;20361;-60
2023/03/07 14:03:53;;;;;;;;;;;7.50;99.90;;;;;;5022840;28;19968;-60
2023/03/07 14:06:25;;;;;;;;;;;7.50;99.90;;;;;;5029120;28;19920;-60
2023/03/07 14:08:52;;;;;;;;;;;7.50;99.90;;;;;;5027597;28;19913;-60
2023/03/07 14:11:23;;;;;;;;;;;7.30;99.90;;;;;;5028685;28;19914;-60
2023/03/07 14:14:08;;;;;;;;;;;7.30;99.90;;;;;;5030682;28;19920;-60
2023/03/07 14:16:36;;;;;;;;;;;7.40;99.90;;;;;;5028536;28;19997;-61
2023/03/07 14:19:26;;;;;;;;;;;7.10;99.90;;;;;;5033509;28;19963;-59
2023/03/07 14:22:11;;;;;;;;;;;7.00;99.90;;;;;;5029908;28;20388;-61
2023/03/07 14:24:37;;;;;;;;;;;7.00;99.90;;;;;;5027057;28;19920;-60
2023/03/07 14:27:04;;;;;;;;;;;6.80;99.90;;;;;;5029965;28;19917;-60
2023/03/07 14:29:30;;;;;;;;;;;6.80;99.90;;;;;;5028665;28;19960;-60
2023/03/07 14:31:56;;;;;;;;;;;6.70;99.90;;;;;;5029917;28;20002;-60
2023/03/07 14:34:33;;;;;;;;;;;6.80;99.90;;;;;;5028582;28;19932;-60
2023/03/07 14:37:01;;;;;;;;;;;6.70;99.90;;;;;;5028027;28;20400;-60